Time;durP1;ratioP1;P1;durP2;ratioP2;P2;SDS_P1;SDS_P2;PMS_P1;PMS_P2;Temp;Humidity;BMP_temperature;BMP_pressure;BME280_temperature;BME280_humidity;BME280_pressure;Samples;Min_cycle;Max_cycle;Signal;HPM_P1;HPM_P2
2021/10/23 00:00:19;;;;;;;2.83;0.77;;;;;;;7.03;56.84;98038.78;4952150;28;20086;-58
2021/10/23 00:02:45;;;;;;;1.75;0.90;;;;;;;7.04;56.81;98037.88;4952618;28;20125;-54
2021/10/23 00:05:11;;;;;;;2.30;0.95;;;;;;;7.05;56.56;98031.81;4952104;28;21756;-55
2021/10/23 00:07:37;;;;;;;1.70;0.80;;;;;;;7.07;56.60;98036.00;4952207;28;20047;-56
2021/10/23 00:10:04;;;;;;;2.13;0.47;;;;;;;7.09;56.67;98020.41;4952250;29;20400;-54
2021/10/23 00:12:30;;;;;;;0.73;0.63;;;;;;;7.09;56.84;98033.34;4952490;29;20071;-57
2021/10/23 00:14:57;;;;;;;3.95;0.90;;;;;;;7.07;56.56;98040.31;4950692;29;20039;-55
2021/10/23 00:17:23;;;;;;;4.10;0.80;;;;;;;7.09;56.48;98033.34;4951260;28;20047;-53
2021/10/23 00:19:49;;;;;;;2.13;0.70;;;;;;;7.08;56.94;98040.25;4952391;29;20042;-55
2021/10/23 00:22:15;;;;;;;1.35;1.00;;;;;;;7.10;56.47;98028.13;4951574;28;20244;-54
2021/10/23 00:24:41;;;;;;;3.58;0.90;;;;;;;7.10;56.55;98016.94;4951174;29;20125;-55
2021/10/23 00:27:07;;;;;;;0.75;0.52;;;;;;;7.12;56.71;98033.19;4951801;28;20126;-56
2021/10/23 00:29:33;;;;;;;1.25;0.80;;;;;;;7.14;57.07;98032.22;4951628;28;20047;-53
2021/10/23 00:31:58;;;;;;;2.20;0.80;;;;;;;7.16;56.15;98027.00;4952355;28;20043;-55
2021/10/23 00:34:24;;;;;;;0.88;0.47;;;;;;;7.18;56.58;98014.81;4951760;28;20155;-55
2021/10/23 00:36:50;;;;;;;3.92;1.10;;;;;;;7.19;56.50;98025.09;4951763;28;20046;-55
2021/10/23 00:39:16;;;;;;;1.85;1.10;;;;;;;7.20;56.88;98018.19;4951901;28;20039;-54
2021/10/23 00:41:42;;;;;;;1.60;0.73;;;;;;;7.22;56.98;98022.34;4952067;29;20452;-57
2021/10/23 00:44:28;;;;;;;1.85;0.55;;;;;;;7.22;57.09;98030.09;4951971;28;20046;-52
2021/10/23 00:46:54;;;;;;;4.03;1.10;;;;;;;7.18;57.04;98015.66;4933561;29;20055;-55
2021/10/23 00:49:20;;;;;;;3.63;1.05;;;;;;;7.25;57.03;98023.97;4951049;28;20053;-53
2021/10/23 00:51:46;;;;;;;2.42;1.13;;;;;;;7.18;57.10;98000.16;4951067;28;20039;-57
2021/10/23 00:54:12;;;;;;;2.05;0.70;;;;;;;7.26;57.14;98028.22;4951430;29;20426;-56
2021/10/23 00:56:38;;;;;;;3.13;1.10;;;;;;;7.27;57.16;98024.75;4951440;28;20516;-55
2021/10/23 00:59:05;;;;;;;8.07;1.23;;;;;;;7.27;57.08;98029.91;4951025;29;20583;-55
2021/10/23 01:01:31;;;;;;;4.28;1.15;;;;;;;7.26;57.21;98038.56;4951665;28;20051;-54
2021/10/23 01:03:58;;;;;;;2.75;0.70;;;;;;;7.20;57.60;98036.25;4951135;28;20058;-54
2021/10/23 01:06:23;;;;;;;2.33;1.15;;;;;;;7.23;57.35;98028.34;4950950;28;20071;-55
2021/10/23 01:08:49;;;;;;;2.30;1.08;;;;;;;7.23;57.84;98031.78;4933777;29;20075;-54
2021/10/23 01:11:15;;;;;;;3.30;0.90;;;;;;;7.22;57.84;98043.03;4951498;29;20130;-56
2021/10/23 01:13:41;;;;;;;4.50;0.95;;;;;;;7.23;58.17;98042.13;4937804;29;20048;-55
2021/10/23 01:16:07;;;;;;;2.85;1.02;;;;;;;7.22;58.03;98043.03;4947843;28;20471;-57
2021/10/23 01:18:33;;;;;;;3.53;1.40;;;;;;;7.21;58.07;98054.28;4950160;29;20050;-57
2021/10/23 01:20:59;;;;;;;0.90;0.60;;;;;;;7.26;58.22;98037.72;4951144;28;20071;-55
2021/10/23 01:23:25;;;;;;;2.90;1.00;;;;;;;7.32;57.84;98045.19;4951279;28;20043;-56
2021/10/23 01:25:51;;;;;;;3.25;0.90;;;;;;;7.33;57.75;98047.69;4966313;28;20035;-57
2021/10/23 01:28:17;;;;;;;5.25;1.05;;;;;;;7.38;57.49;98042.31;4949051;28;20031;-58
2021/10/23 01:30:43;;;;;;;6.63;1.40;;;;;;;7.25;57.67;98021.38;4950062;29;20070;-56
2021/10/23 01:33:09;;;;;;;3.03;1.17;;;;;;;7.41;57.79;98026.66;4951210;28;20043;-54
2021/10/23 01:35:36;;;;;;;2.92;0.98;;;;;;;7.32;57.50;98033.09;4952698;28;20043;-53
2021/10/23 01:38:02;;;;;;;5.30;1.00;;;;;;;7.43;57.56;98033.41;4953954;28;20046;-57
2021/10/23 01:40:34;;;;;;;4.03;1.10;;;;;;;7.50;57.54;98021.88;4954914;28;20507;-56
2021/10/23 01:43:01;;;;;;;8.40;1.25;;;;;;;7.52;57.29;98034.72;4941169;29;20469;-56
2021/10/23 01:45:30;;;;;;;3.30;1.10;;;;;;;7.51;57.55;98031.31;4947456;29;20043;-53
2021/10/23 01:47:55;;;;;;;2.28;1.05;;;;;;;7.49;57.66;98033.13;4954423;28;20703;-52
2021/10/23 01:50:24;;;;;;;4.25;1.27;;;;;;;7.53;57.50;98044.16;4952817;28;20047;-55
2021/10/23 01:52:50;;;;;;;1.67;0.88;;;;;;;7.49;57.68;98029.69;4954660;29;20058;-55
2021/10/23 01:55:16;;;;;;;4.13;1.45;;;;;;;7.48;57.91;98025.47;4953183;29;20042;-49
2021/10/23 01:57:42;;;;;;;3.90;1.23;;;;;;;7.52;57.72;98029.56;4953698;28;20049;-56
2021/10/23 02:00:10;;;;;;;2.78;1.10;;;;;;;7.54;57.89;98041.50;4953450;29;20043;-51
2021/10/23 02:02:39;;;;;;;3.33;1.73;;;;;;;7.55;57.61;98038.00;4954303;29;20062;-56
2021/10/23 02:05:06;;;;;;;5.32;1.10;;;;;;;7.52;57.68;98038.16;4953899;29;20102;-55
2021/10/23 02:07:32;;;;;;;1.25;0.88;;;;;;;7.47;58.04;98041.88;4955236;29;20538;-55
2021/10/23 02:09:57;;;;;;;1.70;1.02;;;;;;;7.35;58.25;98029.53;4954876;29;20091;-57
2021/10/23 02:12:23;;;;;;;4.90;1.25;;;;;;;7.48;58.05;98034.06;4954715;28;20043;-58
2021/10/23 02:14:49;;;;;;;1.95;1.20;;;;;;;7.49;58.14;98038.28;4954953;28;20047;-56
2021/10/23 02:17:15;;;;;;;5.30;1.50;;;;;;;7.43;58.00;98024.84;4954522;29;20047;-56
2021/10/23 02:19:41;;;;;;;4.32;1.17;;;;;;;7.41;57.99;98030.06;4954835;28;20043;-54
2021/10/23 02:22:06;;;;;;;1.70;0.98;;;;;;;7.44;58.19;98026.50;4954095;28;20451;-55
2021/10/23 02:24:33;;;;;;;5.75;1.10;;;;;;;7.51;58.09;98049.41;4953539;29;20070;-57
2021/10/23 02:26:58;;;;;;;3.75;1.20;;;;;;;7.48;58.32;98046.97;4954397;28;20539;-55
2021/10/23 02:29:24;;;;;;;2.03;1.25;;;;;;;7.53;58.23;98044.16;4954768;28;20050;-56
2021/10/23 02:31:50;;;;;;;2.70;0.70;;;;;;;7.56;58.26;98051.78;4953640;28;20094;-55
2021/10/23 02:34:16;;;;;;;3.50;1.15;;;;;;;7.55;58.02;98044.91;4936776;28;20042;-55
2021/10/23 02:36:42;;;;;;;3.80;1.30;;;;;;;7.56;58.20;98033.66;4955068;28;20133;-52
2021/10/23 02:39:08;;;;;;;3.38;1.30;;;;;;;7.56;58.21;98039.69;4954460;29;20131;-54
2021/10/23 02:41:34;;;;;;;4.85;1.23;;;;;;;7.57;58.48;98051.69;4953868;29;20043;-52
2021/10/23 02:44:00;;;;;;;4.50;1.20;;;;;;;7.48;58.35;98026.28;4954123;28;20043;-54
2021/10/23 02:46:25;;;;;;;1.52;0.88;;;;;;;7.56;58.13;98034.50;4954421;28;20039;-53
2021/10/23 02:48:51;;;;;;;2.38;1.20;;;;;;;7.55;58.16;98039.75;4954139;29;20047;-56
2021/10/23 02:51:17;;;;;;;3.47;1.23;;;;;;;7.50;58.61;98021.03;4950824;28;20043;-56
2021/10/23 02:53:43;;;;;;;1.58;1.10;;;;;;;7.56;57.94;98031.91;4936852;29;20098;-58
2021/10/23 02:56:09;;;;;;;2.88;0.90;;;;;;;7.62;58.23;98054.06;4935198;29;20052;-54
2021/10/23 02:58:35;;;;;;;2.50;1.55;;;;;;;7.62;58.21;98041.13;4949626;29;20129;-56
2021/10/23 03:01:01;;;;;;;3.70;1.40;;;;;;;7.64;57.73;98041.91;4953619;28;20059;-55
2021/10/23 03:03:27;;;;;;;4.55;1.40;;;;;;;7.68;58.05;98055.50;4954205;29;20095;-56
2021/10/23 03:05:53;;;;;;;5.35;1.30;;;;;;;7.72;58.12;98063.03;4954038;29;20051;-53
2021/10/23 03:08:19;;;;;;;7.78;1.30;;;;;;;7.71;58.10;98052.75;4954127;28;20047;-57
2021/10/23 03:10:44;;;;;;;4.15;1.40;;;;;;;7.69;58.09;98047.69;4952181;29;20114;-55
2021/10/23 03:13:10;;;;;;;4.47;1.65;;;;;;;7.72;58.31;98044.94;4953532;29;20499;-55
2021/10/23 03:15:36;;;;;;;6.30;1.27;;;;;;;7.70;58.21;98048.50;4951599;28;20553;-56
2021/10/23 03:18:01;;;;;;;4.68;1.63;;;;;;;7.72;57.86;98073.41;4951550;28;20105;-52
2021/10/23 03:20:30;;;;;;;3.35;1.40;;;;;;;7.73;57.90;98058.72;4934404;28;20048;-58
2021/10/23 03:22:58;;;;;;;4.15;1.30;;;;;;;7.72;57.99;98063.03;4934556;29;20101;-56
2021/10/23 03:25:23;;;;;;;4.88;1.77;;;;;;;7.69;58.21;98058.03;4940316;29;20043;-57
2021/10/23 03:27:49;;;;;;;3.58;1.10;;;;;;;7.67;58.09;98065.03;4951500;29;20058;-49
2021/10/23 03:30:15;;;;;;;4.90;1.15;;;;;;;7.65;58.20;98070.25;4951160;28;20125;-53
2021/10/23 03:32:41;;;;;;;1.65;0.95;;;;;;;7.64;58.10;98072.94;4951570;28;20051;-50
2021/10/23 03:35:07;;;;;;;1.90;1.13;;;;;;;7.63;58.41;98063.50;4951208;28;20047;-56
2021/10/23 03:37:34;;;;;;;2.28;1.15;;;;;;;7.59;58.51;98070.53;4951144;28;20055;-56
2021/10/23 03:40:05;;;;;;;3.03;1.67;;;;;;;7.59;58.58;98051.59;4965473;28;20191;-53
2021/10/23 03:42:30;;;;;;;2.65;0.88;;;;;;;7.59;58.58;98061.94;4945219;28;20039;-54
2021/10/23 03:44:56;;;;;;;5.63;1.42;;;;;;;7.56;58.63;98055.19;4944468;28;20484;-56
2021/10/23 03:47:22;;;;;;;5.43;1.85;;;;;;;7.57;58.60;98064.63;4947418;29;20047;-55
2021/10/23 03:49:48;;;;;;;4.13;1.35;;;;;;;7.54;58.59;98069.94;4948276;29;20070;-55
2021/10/23 03:52:15;;;;;;;4.60;1.48;;;;;;;7.55;58.58;98066.44;4941232;29;20044;-55
2021/10/23 03:54:41;;;;;;;2.97;1.40;;;;;;;7.52;58.71;98060.59;4952118;29;20542;-55
2021/10/23 03:57:07;;;;;;;6.05;1.58;;;;;;;7.51;58.88;98089.94;4952116;28;20050;-56
2021/10/23 03:59:33;;;;;;;5.57;1.70;;;;;;;7.51;58.72;98077.00;4953010;29;20492;-54
2021/10/23 04:01:59;;;;;;;5.35;1.60;;;;;;;7.48;58.94;98078.00;4952607;29;20063;-55
2021/10/23 04:04:25;;;;;;;4.88;1.35;;;;;;;7.50;58.99;98081.34;4952792;28;20046;-54
2021/10/23 04:06:52;;;;;;;4.10;1.60;;;;;;;7.50;59.14;98072.75;4942871;28;20083;-58
2021/10/23 04:09:18;;;;;;;4.20;2.40;;;;;;;7.54;59.04;98080.28;4931570;29;20127;-59
2021/10/23 04:11:43;;;;;;;3.13;1.45;;;;;;;7.53;58.85;98075.19;4945813;29;20490;-57
2021/10/23 04:14:09;;;;;;;3.78;1.13;;;;;;;7.50;58.99;98083.94;4945082;29;20141;-59
2021/10/23 04:16:35;;;;;;;2.35;1.33;;;;;;;7.51;59.39;98092.53;4933336;29;20040;-60
2021/10/23 04:19:01;;;;;;;3.35;1.60;;;;;;;7.50;58.99;98081.34;4928996;29;20043;-57
2021/10/23 04:21:27;;;;;;;9.50;1.90;;;;;;;7.49;58.99;98078.81;4946576;28;20130;-59
2021/10/23 04:23:53;;;;;;;4.20;1.63;;;;;;;7.49;59.15;98074.50;4963769;28;20043;-54
2021/10/23 04:26:19;;;;;;;3.42;1.80;;;;;;;7.50;59.18;98083.94;4951352;28;20043;-55
2021/10/23 04:28:45;;;;;;;3.83;1.33;;;;;;;7.51;59.27;98085.59;4950953;28;20051;-57
2021/10/23 04:31:10;;;;;;;1.67;1.27;;;;;;;7.52;59.14;98107.97;4951253;29;20034;-58
2021/10/23 04:33:36;;;;;;;2.78;1.40;;;;;;;7.50;59.12;98090.84;4949240;28;20090;-58
2021/10/23 04:36:03;;;;;;;3.67;1.55;;;;;;;7.52;59.29;98097.63;4951228;29;20065;-59
2021/10/23 04:38:28;;;;;;;7.22;2.20;;;;;;;7.54;59.23;98087.19;4950557;28;20068;-58
2021/10/23 04:40:56;;;;;;;3.28;1.45;;;;;;;7.55;58.98;98100.06;4949906;28;20043;-54
2021/10/23 04:43:22;;;;;;;4.43;1.52;;;;;;;7.57;59.12;98093.06;4951695;28;20043;-54
2021/10/23 04:45:48;;;;;;;4.72;1.60;;;;;;;7.58;59.16;98094.75;4952634;28;20047;-60
2021/10/23 04:48:14;;;;;;;3.70;1.95;;;;;;;7.59;58.90;98086.06;4949177;28;20046;-52
2021/10/23 04:50:40;;;;;;;11.98;1.50;;;;;;;7.64;59.10;98085.88;4948211;28;20110;-50
2021/10/23 04:53:06;;;;;;;2.92;1.50;;;;;;;7.64;59.09;98097.03;4951420;29;20074;-55
2021/10/23 04:55:32;;;;;;;4.72;1.88;;;;;;;7.59;58.76;98082.63;4946204;28;20372;-52
2021/10/23 04:57:58;;;;;;;6.05;1.40;;;;;;;7.66;58.87;98096.97;4966508;28;20142;-51
2021/10/23 05:00:25;;;;;;;4.70;1.65;;;;;;;7.66;59.16;98108.16;4951757;28;20046;-51
2021/10/23 05:02:51;;;;;;;4.47;1.63;;;;;;;7.71;58.82;98105.34;4951615;28;20094;-57
2021/10/23 05:05:18;;;;;;;4.43;1.45;;;;;;;7.74;58.88;98099.19;4951808;29;20141;-52
2021/10/23 05:07:43;;;;;;;2.30;1.20;;;;;;;7.73;58.87;98113.88;4950209;29;20515;-50
2021/10/23 05:10:09;;;;;;;3.58;1.55;;;;;;;7.70;58.70;98105.41;4950485;28;20058;-53
2021/10/23 05:12:35;;;;;;;2.83;1.48;;;;;;;7.76;59.14;98105.94;4951327;28;20043;-51
2021/10/23 05:15:01;;;;;;;3.13;1.40;;;;;;;7.77;59.25;98096.44;4950465;29;20050;-52
2021/10/23 05:17:26;;;;;;;2.40;1.23;;;;;;;7.67;59.01;98103.81;4951753;28;20058;-55
2021/10/23 05:19:52;;;;;;;3.50;1.30;;;;;;;7.69;59.26;98098.56;4951861;28;20132;-54
2021/10/23 05:22:18;;;;;;;4.40;2.10;;;;;;;7.67;59.61;98096.06;4951095;28;20039;-55
2021/10/23 05:24:44;;;;;;;7.90;1.83;;;;;;;7.50;59.64;98067.56;4951318;28;20341;-50
2021/10/23 05:27:10;;;;;;;3.53;1.45;;;;;;;7.60;59.84;98100.69;4949974;29;20054;-51
2021/10/23 05:29:36;;;;;;;4.55;1.65;;;;;;;7.70;59.41;98092.47;4951637;28;20898;-52
2021/10/23 05:32:02;;;;;;;7.32;1.52;;;;;;;7.72;59.30;98096.66;4950841;28;20062;-55
2021/10/23 05:34:28;;;;;;;16.45;2.42;;;;;;;8.55;57.69;98102.03;4951334;29;20075;-55
2021/10/23 05:36:54;;;;;;;3.45;1.70;;;;;;;9.39;54.41;98102.72;4950286;29;20047;-54
2021/10/23 05:39:20;;;;;;;6.10;2.25;;;;;;;9.97;53.56;98103.75;4951459;28;20043;-50
2021/10/23 05:41:45;;;;;;;7.28;1.52;;;;;;;9.55;53.56;98117.38;4951307;28;20077;-53
2021/10/23 05:44:11;;;;;;;4.10;1.48;;;;;;;8.76;55.37;98106.09;4934316;29;20039;-57
2021/10/23 05:46:37;;;;;;;5.85;1.90;;;;;;;8.42;56.75;98107.00;4951306;28;20123;-51
2021/10/23 05:49:03;;;;;;;5.13;1.65;;;;;;;8.34;57.18;98124.66;4951489;28;20083;-53
2021/10/23 05:51:29;;;;;;;4.47;2.03;;;;;;;8.26;57.31;98119.00;4950143;29;20047;-53
2021/10/23 05:53:54;;;;;;;4.63;1.77;;;;;;;8.25;57.60;98116.50;4951016;28;20043;-54
2021/10/23 05:56:21;;;;;;;4.05;1.65;;;;;;;8.31;57.45;98121.41;4948533;28;20046;-55
2021/10/23 05:58:47;;;;;;;4.75;2.08;;;;;;;8.23;57.47;98119.16;4950902;28;20073;-53
2021/10/23 06:01:13;;;;;;;3.78;1.65;;;;;;;8.18;57.63;98120.28;4947339;28;20528;-50
2021/10/23 06:03:39;;;;;;;4.68;1.73;;;;;;;8.02;58.09;98120.22;4950137;29;20049;-52
2021/10/23 06:06:07;;;;;;;6.15;1.90;;;;;;;8.16;57.82;98117.81;4949975;29;20047;-53
2021/10/23 06:08:34;;;;;;;7.47;2.17;;;;;;;8.18;57.66;98128.91;4950152;29;20054;-54
2021/10/23 06:11:00;;;;;;;7.90;1.80;;;;;;;8.17;57.80;98116.03;4932235;29;20051;-55
2021/10/23 06:13:26;;;;;;;7.13;1.38;;;;;;;8.09;58.08;98126.75;4965550;28;20047;-54
2021/10/23 06:15:53;;;;;;;6.07;1.88;;;;;;;8.69;56.78;98119.47;4951222;28;20062;-57
2021/10/23 06:18:20;;;;;;;6.72;1.70;;;;;;;10.11;52.92;98116.75;4948964;29;20067;-57
2021/10/23 06:20:46;;;;;;;4.88;1.70;;;;;;;11.12;50.19;98121.19;4946804;28;20090;-60
2021/10/23 06:23:12;;;;;;;5.40;1.50;;;;;;;11.16;48.95;98115.69;4960599;28;20039;-60
2021/10/23 06:25:38;;;;;;;5.05;2.03;;;;;;;10.32;51.13;98121.66;4942373;29;20058;-55
2021/10/23 06:28:04;;;;;;;4.03;1.35;;;;;;;10.46;50.67;98126.91;4952714;29;20131;-58
2021/10/23 06:30:30;;;;;;;7.70;1.90;;;;;;;11.28;48.68;98121.91;4952579;28;20061;-57
2021/10/23 06:32:57;;;;;;;6.47;1.80;;;;;;;11.82;46.97;98121.06;4967343;28;20049;-57
2021/10/23 06:35:24;;;;;;;3.08;1.45;;;;;;;11.66;47.80;98129.94;4937957;28;20059;-59
2021/10/23 06:37:51;;;;;;;6.03;1.80;;;;;;;11.25;48.37;98122.13;4937595;29;20067;-57
2021/10/23 06:40:18;;;;;;;6.10;2.55;;;;;;;10.46;49.84;98106.13;4952083;28;20051;-60
2021/10/23 06:42:44;;;;;;;12.85;1.92;;;;;;;10.26;50.41;98141.03;4933888;29;20051;-60
2021/10/23 06:45:12;;;;;;;3.00;1.83;;;;;;;9.85;51.08;98135.56;4950077;29;20050;-57
2021/10/23 06:47:38;;;;;;;6.03;1.60;;;;;;;9.72;51.84;98122.47;4940818;29;20105;-57
2021/10/23 06:50:06;;;;;;;4.80;1.45;;;;;;;9.57;51.88;98140.66;4951954;29;20048;-60
2021/10/23 06:52:33;;;;;;;2.15;1.45;;;;;;;9.39;52.78;98132.09;4954931;28;20094;-59
2021/10/23 06:54:59;;;;;;;3.80;1.40;;;;;;;9.46;52.52;98115.28;4936601;29;20047;-55
2021/10/23 06:57:25;;;;;;;5.65;1.65;;;;;;;9.47;52.47;98110.94;4944960;29;20047;-55
2021/10/23 06:59:51;;;;;;;5.63;1.73;;;;;;;9.44;52.54;98122.31;4924072;29;20495;-58
2021/10/23 07:02:18;;;;;;;5.07;1.10;;;;;;;9.26;52.78;98105.16;4945773;29;20052;-59
2021/10/23 07:04:44;;;;;;;4.38;1.70;;;;;;;9.32;53.07;98123.81;4951555;28;20534;-58
2021/10/23 07:07:10;;;;;;;2.28;1.15;;;;;;;9.25;53.02;98151.00;4949909;28;20061;-60
2021/10/23 07:09:35;;;;;;;4.93;1.20;;;;;;;9.02;53.30;98119.44;4948206;28;20043;-61
2021/10/23 07:12:02;;;;;;;2.65;1.30;;;;;;;9.12;53.56;98115.41;4946676;28;20098;-60
2021/10/23 07:14:27;;;;;;;4.70;1.58;;;;;;;9.16;53.73;98120.34;4944222;29;20494;-60
2021/10/23 07:16:53;;;;;;;2.60;1.02;;;;;;;9.20;53.09;98123.66;4952937;28;20067;-59
2021/10/23 07:19:19;;;;;;;2.97;1.35;;;;;;;9.39;53.17;98124.31;4950330;29;20094;-58
2021/10/23 07:21:45;;;;;;;4.95;1.45;;;;;;;9.54;52.27;98117.44;4953658;29;20058;-55
2021/10/23 07:24:11;;;;;;;2.83;1.50;;;;;;;9.81;51.91;98117.66;4953780;28;20071;-57
2021/10/23 07:26:37;;;;;;;5.07;1.50;;;;;;;9.88;51.61;98129.41;4953756;28;20043;-58
2021/10/23 07:29:03;;;;;;;6.80;2.40;;;;;;;10.14;51.18;98132.19;4951864;28;20050;-60
2021/10/23 07:31:29;;;;;;;3.47;1.83;;;;;;;10.32;50.41;98134.66;4947474;28;20066;-59
2021/10/23 07:33:55;;;;;;;4.43;1.90;;;;;;;10.14;50.67;98165.09;4952350;29;20085;-58
2021/10/23 07:36:21;;;;;;;5.75;1.42;;;;;;;9.76;51.67;98159.44;4953288;28;20035;-59
2021/10/23 07:38:48;;;;;;;4.75;1.70;;;;;;;9.45;52.38;98157.72;4953119;28;20493;-60
2021/10/23 07:41:14;;;;;;;3.28;1.33;;;;;;;9.33;52.73;98169.56;4953402;29;20428;-53
2021/10/23 07:43:41;;;;;;;6.28;1.60;;;;;;;9.28;53.28;98137.03;4951675;29;20043;-57
2021/10/23 07:46:07;;;;;;;5.38;1.95;;;;;;;9.25;53.11;98160.53;4952846;29;20055;-59
2021/10/23 07:48:35;;;;;;;4.90;1.48;;;;;;;9.19;53.73;98172.06;4952779;28;20035;-61
2021/10/23 07:51:03;;;;;;;4.47;1.95;;;;;;;9.20;53.54;98171.16;4945171;28;20490;-58
2021/10/23 07:53:28;;;;;;;3.47;1.50;;;;;;;9.22;54.14;98165.88;4940172;29;20043;-60
2021/10/23 07:55:54;;;;;;;9.13;2.10;;;;;;;9.29;53.93;98165.47;4952857;28;20529;-58
2021/10/23 07:58:20;;;;;;;5.45;1.77;;;;;;;9.18;54.45;98182.50;4962791;28;20043;-59
2021/10/23 08:00:46;;;;;;;3.78;1.30;;;;;;;8.88;54.53;98166.81;4945886;28;20154;-58
2021/10/23 08:03:12;;;;;;;3.28;1.33;;;;;;;8.96;55.22;98190.56;4951613;29;20046;-60
2021/10/23 08:05:38;;;;;;;4.10;1.52;;;;;;;8.68;55.51;98167.00;4951484;28;20129;-60
2021/10/23 08:08:05;;;;;;;2.72;1.67;;;;;;;8.89;55.78;98187.47;4942100;29;20043;-55
2021/10/23 08:10:32;;;;;;;5.85;1.50;;;;;;;8.96;55.36;98184.53;4951717;28;20047;-58
2021/10/23 08:13:00;;;;;;;3.25;1.20;;;;;;;9.00;54.85;98210.25;4952570;29;20039;-57
2021/10/23 08:15:27;;;;;;;5.18;2.20;;;;;;;8.75;55.47;98179.53;4967405;28;20038;-58
2021/10/23 08:17:54;;;;;;;7.03;2.05;;;;;;;8.84;55.56;98196.41;4949638;28;20511;-55
2021/10/23 08:20:20;;;;;;;3.58;1.90;;;;;;;8.84;55.69;98191.22;4952587;29;20483;-56
2021/10/23 08:22:46;;;;;;;6.18;1.60;;;;;;;8.81;55.60;98191.34;4931996;28;20182;-55
2021/10/23 08:25:13;;;;;;;4.75;2.08;;;;;;;8.98;55.61;98193.94;4919645;29;20050;-55
2021/10/23 08:27:40;;;;;;;8.52;1.92;;;;;;;9.18;55.35;98182.50;4950332;28;20039;-55
2021/10/23 08:30:08;;;;;;;6.85;2.60;;;;;;;9.36;54.58;98181.56;4937907;29;20724;-52
2021/10/23 08:32:36;;;;;;;8.05;1.92;;;;;;;9.45;54.77;98195.78;4916273;29;20044;-55
2021/10/23 08:35:02;;;;;;;5.15;1.73;;;;;;;9.56;53.70;98185.66;4933048;29;20538;-55
2021/10/23 08:37:28;;;;;;;5.05;1.83;;;;;;;9.60;53.95;98189.75;4945947;29;20054;-55
2021/10/23 08:39:54;;;;;;;6.95;1.98;;;;;;;9.69;53.77;98182.31;4948885;29;20038;-54
2021/10/23 08:42:20;;;;;;;2.85;1.55;;;;;;;9.89;53.23;98181.19;4952212;29;20563;-54
2021/10/23 08:44:49;;;;;;;6.57;1.75;;;;;;;9.93;52.88;98185.31;4950615;28;20534;-53
2021/10/23 08:47:15;;;;;;;4.57;2.00;;;;;;;10.09;52.25;98182.69;4942448;28;20044;-68
2021/10/23 08:49:41;;;;;;;6.20;1.85;;;;;;;9.97;52.32;98186.81;4942592;29;20129;-58
2021/10/23 08:52:08;;;;;;;3.88;1.77;;;;;;;9.96;52.49;98177.34;4950752;29;20039;-56
2021/10/23 08:54:35;;;;;;;6.25;1.88;;;;;;;9.98;52.68;98187.66;4948270;29;20267;-54
2021/10/23 08:57:01;;;;;;;4.10;2.20;;;;;;;10.01;52.46;98184.88;4950750;29;20058;-51
2021/10/23 08:59:28;;;;;;;4.95;2.25;;;;;;;10.13;52.83;98194.59;4949339;29;20035;-53
2021/10/23 09:01:58;;;;;;;5.13;2.38;;;;;;;10.20;52.16;98188.16;4951105;29;20055;-54
2021/10/23 09:04:31;;;;;;;14.25;3.95;;;;;;;10.74;51.22;98180.69;4950047;29;20169;-53
2021/10/23 09:07:13;;;;;;;6.38;2.25;;;;;;;12.00;47.99;98196.34;4932722;29;20053;-53
2021/10/23 09:09:49;;;;;;;4.50;2.17;;;;;;;13.15;44.85;98193.88;4932733;29;20090;-55
2021/10/23 09:12:25;;;;;;;3.15;2.20;;;;;;;14.32;42.26;98201.22;4948370;29;20047;-51
2021/10/23 09:14:58;;;;;;;5.20;2.40;;;;;;;14.54;41.64;98193.50;4946764;29;20122;-53
2021/10/23 09:17:24;;;;;;;8.90;2.92;;;;;;;13.52;42.95;98220.88;4947644;29;22049;-56
2021/10/23 09:19:52;;;;;;;3.08;1.92;;;;;;;12.11;45.88;98207.75;4937266;29;20520;-52
2021/10/23 09:22:22;;;;;;;4.35;2.05;;;;;;;11.56;47.48;98193.91;4946332;28;20054;-54
2021/10/23 09:24:50;;;;;;;7.20;2.80;;;;;;;11.35;47.93;98178.69;4948572;29;20054;-55
2021/10/23 09:27:17;;;;;;;7.38;2.55;;;;;;;11.53;47.94;98191.47;4947669;28;20428;-54
2021/10/23 09:29:43;;;;;;;7.45;2.30;;;;;;;11.63;47.28;98201.22;4947566;29;20767;-52
2021/10/23 09:32:10;;;;;;;7.30;2.47;;;;;;;11.43;48.15;98189.44;4947311;28;20110;-53
2021/10/23 09:34:36;;;;;;;6.22;2.75;;;;;;;11.33;48.59;98196.16;4947216;28;20039;-55
2021/10/23 09:37:03;;;;;;;7.93;2.17;;;;;;;11.21;48.80;98199.47;4949884;28;20050;-50
2021/10/23 09:39:32;;;;;;;5.18;2.00;;;;;;;10.56;50.34;98219.84;4947714;28;20150;-53
2021/10/23 09:42:13;;;;;;;4.40;2.35;;;;;;;10.38;50.90;98199.25;4932859;29;20043;-55
2021/10/23 09:45:04;;;;;;;6.75;2.00;;;;;;;10.28;51.84;98206.72;4947859;29;20582;-53
2021/10/23 09:47:46;;;;;;;3.42;1.83;;;;;;;10.12;51.54;98211.91;4952822;28;20047;-54
2021/10/23 09:50:18;;;;;;;5.97;2.35;;;;;;;9.85;53.02;98212.59;4960080;28;20067;-54
2021/10/23 09:53:04;;;;;;;5.22;1.73;;;;;;;9.76;53.55;98226.94;4949677;29;20102;-56
2021/10/23 09:55:34;;;;;;;8.05;2.72;;;;;;;9.90;53.20;98213.19;4938799;28;20404;-52
2021/10/23 09:58:18;;;;;;;5.38;2.22;;;;;;;10.07;52.22;98229.53;4954179;28;20035;-52
2021/10/23 10:00:47;;;;;;;4.28;2.30;;;;;;;10.21;52.36;98228.78;4953571;29;20133;-52
2021/10/23 10:03:13;;;;;;;12.15;2.90;;;;;;;10.31;51.92;98213.53;4955000;28;20475;-54
2021/10/23 10:05:40;;;;;;;7.30;2.50;;;;;;;10.10;52.31;98205.97;4969554;28;20125;-55
2021/10/23 10:08:10;;;;;;;10.10;2.30;;;;;;;10.10;53.13;98223.34;4955154;28;20034;-55
2021/10/23 10:10:38;;;;;;;8.02;2.28;;;;;;;10.10;52.62;98220.75;4955199;28;20097;-52
2021/10/23 10:13:05;;;;;;;9.93;2.75;;;;;;;10.10;52.66;98226.75;4954834;28;20483;-53
2021/10/23 10:15:32;;;;;;;5.65;2.50;;;;;;;9.99;52.58;98233.47;4954606;29;20066;-54
2021/10/23 10:18:01;;;;;;;9.10;2.45;;;;;;;9.91;53.17;98240.81;4937831;29;20050;-56
2021/10/23 10:20:28;;;;;;;5.63;2.47;;;;;;;9.80;53.47;98233.63;4954784;28;20063;-54
2021/10/23 10:22:55;;;;;;;6.30;2.50;;;;;;;9.88;52.98;98238.41;4953742;28;20487;-55
2021/10/23 10:25:27;;;;;;;4.70;2.47;;;;;;;9.81;52.90;98221.47;4954824;28;20051;-52
2021/10/23 10:27:53;;;;;;;5.10;2.42;;;;;;;9.88;53.40;98223.69;4954850;28;20047;-54
2021/10/23 10:30:29;;;;;;;6.68;2.40;;;;;;;9.85;53.24;98235.97;4953670;29;20039;-54
2021/10/23 10:33:19;;;;;;;5.07;2.20;;;;;;;9.68;53.50;98236.91;4954432;28;20039;-51
2021/10/23 10:36:06;;;;;;;7.78;2.50;;;;;;;9.71;53.13;98250.53;4954221;28;20058;-55
2021/10/23 10:42:44;;;;;;;8.05;2.75;;;;;;;9.83;52.89;98238.66;4954248;28;20050;-56
2021/10/23 10:44:12;;;;;;;5.53;2.47;;;;;;;9.88;53.55;98235.81;4954462;29;20081;-50
2021/10/23 10:46:57;;;;;;;7.65;2.38;;;;;;;9.96;53.16;98241.41;4954015;28;20125;-51
2021/10/23 10:49:41;;;;;;;2.47;1.25;;;;;;;9.85;52.88;98244.59;4954391;28;20047;-50
2021/10/23 10:52:38;;;;;;;6.88;2.25;;;;;;;9.72;53.39;98252.22;4954178;28;20142;-53
2021/10/23 10:55:16;;;;;;;2.88;1.60;;;;;;;9.58;53.18;98244.31;4954165;28;20046;-56
2021/10/23 10:58:01;;;;;;;7.35;2.40;;;;;;;9.30;54.11;98215.59;4953766;29;20159;-56
2021/10/23 11:00:45;;;;;;;4.25;1.58;;;;;;;9.46;53.67;98241.53;4954038;28;20047;-53
2021/10/23 11:03:35;;;;;;;3.38;1.80;;;;;;;9.48;54.07;98244.88;4968269;28;20538;-53
2021/10/23 11:06:35;;;;;;;5.53;1.90;;;;;;;10.38;51.03;98222.63;4953609;28;20039;-53
2021/10/23 11:09:27;;;;;;;;;;;;;;;10.62;50.88;98226.44;4954106;28;20051;-52
2021/10/23 11:11:59;;;;;;;2.97;1.88;;;;;;;11.99;47.65;98218.94;4964314;28;19928;-53
2021/10/23 11:14:28;;;;;;;6.97;2.20;;;;;;;12.86;45.21;98211.47;4953975;28;20458;-51
2021/10/23 11:19:40;;;;;;;4.95;2.10;;;;;;;13.33;42.71;98237.00;4949233;29;20133;-54
2021/10/23 11:22:17;;;;;;;2.55;1.45;;;;;;;13.63;41.95;98236.66;4934437;29;20428;-54
2021/10/23 11:24:48;;;;;;;6.32;1.92;;;;;;;14.22;40.88;98228.97;4934463;29;20039;-54
2021/10/23 11:27:43;;;;;;;8.85;1.92;;;;;;;14.43;40.19;98231.81;4945491;29;20039;-53
2021/10/23 11:30:22;;;;;;;5.75;2.00;;;;;;;13.54;41.72;98235.53;4941201;29;20058;-53
2021/10/23 11:33:02;;;;;;;;;;;;;;;13.50;41.90;98235.84;4953638;28;20041;-56
2021/10/23 11:35:36;;;;;;;2.28;1.30;;;;;;;14.31;39.87;98242.19;4965353;28;19917;-54
2021/10/23 11:38:26;;;;;;;3.95;1.98;;;;;;;13.86;40.52;98227.22;4971263;28;20102;-53
2021/10/23 11:40:54;;;;;;;5.55;2.17;;;;;;;12.99;42.18;98246.22;4952293;28;20043;-55
2021/10/23 11:43:21;;;;;;;5.63;2.30;;;;;;;12.45;43.33;98231.63;4952163;29;20420;-55
2021/10/23 11:45:47;;;;;;;3.38;1.85;;;;;;;11.94;43.73;98228.81;4935917;28;20647;-54
2021/10/23 11:48:13;;;;;;;4.32;1.80;;;;;;;11.53;44.57;98236.56;4953373;29;20119;-54
2021/10/23 11:50:44;;;;;;;5.45;1.50;;;;;;;11.47;44.83;98248.19;4953250;28;20049;-52